Blackbird, Delaware
Current Conditions -  °F | °C
As of 4:58 AM on Sunday 26 Oct 2014 (Local Time) from KDOV Reporting Station
Clear Clear  
Wind Chill: 57°   Ceiling: Unl
Heat Index: 57°   Visibility: 8mi
Dew Point: 49°   Wind: 9mph
Humidity: 74%   Direction: 260°W
Pressure: 29.62"   Gusts: NA
Location:  39.3861°N, 75.6559°W
Report Text: KDOV 260858Z AUTO 26008KT 8SM R19/5500FT CLR 14/09 A2962 RMK AO2 SLP033 T01380092 53003
Loading
Personal Weather Stations






























Interactive Weather Map
Tropical Storm Tracking
New forecast layout! Learn more

10-Day Weather Forecast

Advertisements
Track Severe Weather on mobile